Terminal Aerodrome Forecast
Issued by NWS Cleveland, OH

Home | Current Version | Previous Version | Graphics & Text | Print | Product List | Glossary On
Versions: 1 2 3 4 5 6 7 8 9 10 11 12 13 14 15 16 17 18 19 20 21 22 23 24 25 26
000
FTUS41 KCLE 152333
TAFCLE
TAF
KCLE 152333Z 1600/1706 26014G22KT P6SM OVC035
      TEMPO 1600/1604 3SM -SHSN OVC025
     FM160400 25012KT P6SM VCSH OVC050
     FM161300 23012G20KT P6SM OVC035
     FM162000 22008KT P6SM BKN070
     FM170300 17005KT P6SM SCT070=

USA.gov is the U.S. government's official web portal to all federal, state and local government web resources and services.